createdAt,value
2017-06-16T00:00:21.130Z,0
2017-06-16T00:01:21.429Z,0
2017-06-16T00:02:21.426Z,0
2017-06-16T00:03:21.425Z,0
2017-06-16T00:04:21.118Z,0
2017-06-16T00:05:21.418Z,0
2017-06-16T00:06:21.415Z,0
2017-06-16T00:07:21.412Z,0
2017-06-16T00:08:21.408Z,0
2017-06-16T00:09:21.408Z,0
2017-06-16T00:10:21.404Z,0
2017-06-16T00:11:21.412Z,0
2017-06-16T00:12:21.401Z,0
2017-06-16T00:13:21.395Z,0
2017-06-16T00:14:21.397Z,0
2017-06-16T00:15:21.089Z,0
2017-06-16T00:16:21.385Z,0
2017-06-16T00:17:21.382Z,0
2017-06-16T00:18:21.380Z,0
2017-06-16T00:19:21.380Z,0
2017-06-16T00:20:21.374Z,0
2017-06-16T00:21:21.373Z,0
2017-06-16T00:22:21.367Z,0
2017-06-16T00:23:21.367Z,0
2017-06-16T00:24:21.360Z,0
2017-06-16T00:25:21.361Z,0
2017-06-16T00:26:21.357Z,0
2017-06-16T00:27:21.355Z,0
2017-06-16T00:28:21.350Z,0
2017-06-16T00:29:21.349Z,0
2017-06-16T00:30:21.351Z,0
2017-06-16T00:31:21.345Z,0
2017-06-16T00:32:21.038Z,0
2017-06-16T00:33:21.338Z,0
2017-06-16T00:34:21.336Z,0
2017-06-16T00:35:21.328Z,0
2017-06-16T00:36:21.327Z,0
2017-06-16T00:37:21.323Z,0
2017-06-16T00:38:21.324Z,0
2017-06-16T00:39:21.318Z,0
2017-06-16T00:40:21.017Z,0
2017-06-16T00:41:21.014Z,0
2017-06-16T00:42:21.309Z,0
2017-06-16T00:43:21.308Z,0
2017-06-16T00:44:21.002Z,0
2017-06-16T00:45:21.305Z,0
2017-06-16T00:46:21.298Z,0
2017-06-16T00:47:21.301Z,0
2017-06-16T00:48:20.988Z,0
2017-06-16T00:49:21.290Z,0
2017-06-16T00:50:21.287Z,0
2017-06-16T00:51:21.282Z,0
2017-06-16T00:52:21.278Z,0
2017-06-16T00:53:21.275Z,0
2017-06-16T00:54:21.275Z,0
2017-06-16T00:55:21.276Z,0
2017-06-16T00:56:21.266Z,0
2017-06-16T00:57:21.267Z,0
2017-06-16T00:58:21.260Z,0
2017-06-16T00:59:21.259Z,0
2017-06-16T01:00:21.255Z,0
2017-06-16T01:01:21.253Z,0
2017-06-16T01:02:21.250Z,0
2017-06-16T01:03:21.246Z,0
2017-06-16T01:04:21.244Z,0
2017-06-16T01:05:21.239Z,0
2017-06-16T01:06:21.244Z,0
2017-06-16T01:07:21.234Z,0
2017-06-16T01:08:21.232Z,0
2017-06-16T01:09:21.230Z,0
2017-06-16T01:10:21.225Z,0
2017-06-16T01:11:21.219Z,0
2017-06-16T01:12:21.222Z,0
2017-06-16T01:13:21.213Z,0
2017-06-16T01:14:21.224Z,0
2017-06-16T01:15:21.208Z,0
2017-06-16T01:16:21.203Z,0
2017-06-16T01:17:21.204Z,0
2017-06-16T01:18:21.197Z,0
2017-06-16T01:19:21.194Z,0
2017-06-16T01:20:21.191Z,0
2017-06-16T01:21:21.190Z,0
2017-06-16T01:22:20.883Z,0
2017-06-16T01:23:21.186Z,0
2017-06-16T01:24:21.177Z,0
2017-06-16T01:25:21.176Z,0
2017-06-16T01:26:21.170Z,0
2017-06-16T01:27:21.171Z,0
2017-06-16T01:28:21.166Z,0
2017-06-16T01:29:21.161Z,0
2017-06-16T01:30:21.159Z,0
2017-06-16T01:31:21.154Z,0
2017-06-16T01:32:21.158Z,0
2017-06-16T01:33:21.152Z,0
2017-06-16T01:34:21.146Z,0
2017-06-16T01:35:21.145Z,0
2017-06-16T01:36:21.138Z,0
2017-06-16T01:37:20.831Z,0
2017-06-16T01:38:20.829Z,0
2017-06-16T01:39:21.128Z,0
2017-06-16T01:40:21.126Z,0
2017-06-16T01:41:20.822Z,0
2017-06-16T01:42:21.118Z,0
2017-06-16T01:43:20.810Z,0
2017-06-16T01:44:21.110Z,0
2017-06-16T01:45:20.802Z,0
2017-06-16T01:46:21.103Z,0
2017-06-16T01:47:21.099Z,0
2017-06-16T01:48:21.095Z,0
2017-06-16T01:49:21.097Z,0
2017-06-16T01:50:21.091Z,0
2017-06-16T01:51:21.088Z,0
2017-06-16T01:52:21.080Z,0
2017-06-16T01:53:20.775Z,0
2017-06-16T01:54:21.075Z,0
2017-06-16T01:55:21.070Z,4
2017-06-16T01:56:21.067Z,4
2017-06-16T01:57:21.062Z,4
2017-06-16T01:58:21.061Z,0
2017-06-16T01:59:20.754Z,4
2017-06-16T02:00:21.056Z,4
2017-06-16T02:01:21.048Z,4
2017-06-16T02:02:20.741Z,8
2017-06-16T02:03:21.043Z,4
2017-06-16T02:04:20.739Z,8
2017-06-16T02:05:21.034Z,8
2017-06-16T02:06:21.035Z,8
2017-06-16T02:07:21.027Z,8
2017-06-16T02:08:21.030Z,12
2017-06-16T02:09:21.020Z,12
2017-06-16T02:10:21.019Z,16
2017-06-16T02:11:21.014Z,16
2017-06-16T02:12:20.709Z,16
2017-06-16T02:13:21.006Z,20
2017-06-16T02:14:21.003Z,20
2017-06-16T02:15:21.002Z,24
2017-06-16T02:16:21.007Z,24
2017-06-16T02:17:20.991Z,24
2017-06-16T02:18:20.988Z,20
2017-06-16T02:19:20.987Z,24
2017-06-16T02:20:20.680Z,24
2017-06-16T02:21:20.977Z,28
2017-06-16T02:22:20.975Z,32
2017-06-16T02:23:20.969Z,32
2017-06-16T02:24:20.966Z,36
2017-06-16T02:25:20.966Z,40
2017-06-16T02:26:20.961Z,40
2017-06-16T02:27:21.157Z,44
2017-06-16T02:28:20.647Z,48
2017-06-16T02:29:20.644Z,48
2017-06-16T02:30:20.947Z,52
2017-06-16T02:31:20.944Z,56
2017-06-16T02:32:20.937Z,60
2017-06-16T02:33:20.938Z,68
2017-06-16T02:34:20.929Z,76
2017-06-16T02:35:20.965Z,76
2017-06-16T02:36:21.525Z,76
2017-06-16T02:37:20.618Z,72
2017-06-16T02:38:20.914Z,72
2017-06-16T02:39:20.306Z,76
2017-06-16T02:40:20.910Z,76
2017-06-16T02:41:20.907Z,76
2017-06-16T02:42:20.601Z,84
2017-06-16T02:43:20.897Z,84
2017-06-16T02:44:20.894Z,88
2017-06-16T02:45:20.893Z,96
2017-06-16T02:46:20.886Z,100
2017-06-16T02:47:20.884Z,112
2017-06-16T02:48:20.881Z,120
2017-06-16T02:49:20.877Z,136
2017-06-16T02:50:20.873Z,140
2017-06-16T02:51:20.870Z,152
2017-06-16T02:52:20.868Z,168
2017-06-16T02:53:20.864Z,160
2017-06-16T02:54:20.860Z,184
2017-06-16T02:55:20.556Z,180
2017-06-16T02:56:20.856Z,184
2017-06-16T02:57:20.851Z,188
2017-06-16T02:58:20.846Z,200
2017-06-16T02:59:20.849Z,196
2017-06-16T03:00:20.840Z,208
2017-06-16T03:01:20.840Z,224
2017-06-16T03:02:20.835Z,248
2017-06-16T03:03:20.833Z,272
2017-06-16T03:04:20.828Z,296
2017-06-16T03:05:20.826Z,328
2017-06-16T03:06:20.824Z,344
2017-06-16T03:07:20.819Z,332
2017-06-16T03:08:20.819Z,356
2017-06-16T03:09:20.814Z,380
2017-06-16T03:10:20.813Z,464
2017-06-16T03:11:20.811Z,512
2017-06-16T03:12:20.809Z,564
2017-06-16T03:13:20.800Z,584
2017-06-16T03:14:20.799Z,644
2017-06-16T03:15:20.796Z,628
2017-06-16T03:16:20.794Z,612
2017-06-16T03:17:20.789Z,572
2017-06-16T03:18:20.789Z,576
2017-06-16T03:19:20.784Z,624
2017-06-16T03:20:20.779Z,684
2017-06-16T03:21:20.491Z,736
2017-06-16T03:22:21.076Z,804
2017-06-16T03:23:20.771Z,884
2017-06-16T03:24:20.770Z,988
2017-06-16T03:25:20.768Z,1128
2017-06-16T03:26:20.766Z,1180
2017-06-16T03:27:20.759Z,1312
2017-06-16T03:28:20.759Z,1392
2017-06-16T03:29:20.753Z,1320
2017-06-16T03:30:20.753Z,1280
2017-06-16T03:31:20.751Z,1356
2017-06-16T03:32:20.747Z,1584
2017-06-16T03:33:20.747Z,1796
2017-06-16T03:34:20.744Z,1940
2017-06-16T03:35:20.437Z,1908
2017-06-16T03:36:20.736Z,1872
2017-06-16T03:37:20.733Z,2008
2017-06-16T03:38:20.728Z,2212
2017-06-16T03:39:20.730Z,2080
2017-06-16T03:40:20.723Z,1736
2017-06-16T03:41:20.421Z,1824
2017-06-16T03:42:20.721Z,1764
2017-06-16T03:43:20.724Z,2232
2017-06-16T03:44:20.715Z,2272
2017-06-16T03:45:20.713Z,2536
2017-06-16T03:46:20.404Z,1956
2017-06-16T03:47:20.405Z,2180
2017-06-16T03:48:20.703Z,1764
2017-06-16T03:49:20.704Z,1496
2017-06-16T03:50:20.698Z,1440
2017-06-16T03:51:20.699Z,1132
2017-06-16T03:52:20.693Z,1024
2017-06-16T03:53:20.693Z,1120
2017-06-16T03:54:20.689Z,1248
2017-06-16T03:55:20.687Z,1072
2017-06-16T03:56:20.379Z,1076
2017-06-16T03:57:20.683Z,1048
2017-06-16T03:58:20.714Z,980
2017-06-16T03:59:20.678Z,988
2017-06-16T04:00:20.674Z,1152
2017-06-16T04:01:20.670Z,1168
2017-06-16T04:02:20.667Z,1224
2017-06-16T04:03:20.667Z,1272
2017-06-16T04:04:20.667Z,1320
2017-06-16T04:05:20.661Z,1364
2017-06-16T04:06:20.662Z,1840
2017-06-16T04:07:20.653Z,1716
2017-06-16T04:08:20.653Z,1364
2017-06-16T04:09:20.652Z,1468
2017-06-16T04:10:20.347Z,2064
2017-06-16T04:11:20.646Z,2208
2017-06-16T04:12:20.642Z,1616
2017-06-16T04:13:20.642Z,1000
2017-06-16T04:14:20.636Z,952
2017-06-16T04:15:20.635Z,1268
2017-06-16T04:16:20.641Z,1096
2017-06-16T04:17:20.631Z,1028
2017-06-16T04:18:20.635Z,1068
2017-06-16T04:19:20.628Z,1016
2017-06-16T04:20:20.626Z,1112
2017-06-16T04:21:20.621Z,1288
2017-06-16T04:22:20.621Z,1408
2017-06-16T04:23:20.318Z,1664
2017-06-16T04:24:20.615Z,2024
2017-06-16T04:25:20.611Z,2256
2017-06-16T04:26:20.608Z,2396
2017-06-16T04:27:20.612Z,2776
2017-06-16T04:28:20.604Z,3144
2017-06-16T04:29:19.995Z,3648
2017-06-16T04:30:20.296Z,3884
2017-06-16T04:31:20.600Z,3752
2017-06-16T04:32:20.599Z,3780
2017-06-16T04:33:20.595Z,3700
2017-06-16T04:34:20.593Z,4044
2017-06-16T04:35:20.595Z,5528
2017-06-16T04:36:20.622Z,5808
2017-06-16T04:37:20.595Z,4952
2017-06-16T04:38:20.580Z,5284
2017-06-16T04:39:20.580Z,4916
2017-06-16T04:40:20.577Z,4932
2017-06-16T04:41:20.579Z,4552
2017-06-16T04:42:20.573Z,5180
2017-06-16T04:43:20.570Z,7196
2017-06-16T04:44:20.567Z,7152
2017-06-16T04:45:20.569Z,7772
2017-06-16T04:46:20.260Z,8636
2017-06-16T04:47:20.567Z,12852
2017-06-16T04:48:20.560Z,10188
2017-06-16T04:49:20.560Z,8608
2017-06-16T04:50:20.255Z,9356
2017-06-16T04:51:20.556Z,8344
2017-06-16T04:52:20.249Z,8360
2017-06-16T04:53:20.552Z,10476
2017-06-16T04:54:20.246Z,10204
2017-06-16T04:55:20.549Z,11860
2017-06-16T04:56:20.546Z,16128
2017-06-16T04:57:20.546Z,17088
2017-06-16T04:58:20.582Z,8908
2017-06-16T04:59:20.542Z,9356
2017-06-16T05:00:20.545Z,9192
2017-06-16T05:01:20.542Z,13760
2017-06-16T05:02:20.539Z,24928
2017-06-16T05:03:20.541Z,22848
2017-06-16T05:04:20.236Z,18912
2017-06-16T05:05:20.234Z,29024
2017-06-16T05:06:20.536Z,30208
2017-06-16T05:07:20.540Z,20160
2017-06-16T05:08:20.536Z,23520
2017-06-16T05:09:20.540Z,26912
2017-06-16T05:10:20.548Z,30784
2017-06-16T05:11:20.237Z,29888
2017-06-16T05:12:20.544Z,30496
2017-06-16T05:13:20.545Z,31712
2017-06-16T05:14:20.243Z,31712
2017-06-16T05:15:20.550Z,33280
2017-06-16T05:16:20.552Z,36448
2017-06-16T05:17:20.252Z,37696
2017-06-16T05:18:20.258Z,35648
2017-06-16T05:19:20.563Z,36832
2017-06-16T05:20:20.574Z,35968
2017-06-16T05:21:20.576Z,35360
2017-06-16T05:22:20.580Z,36096
2017-06-16T05:23:20.286Z,38688
2017-06-16T05:24:20.596Z,36640
2017-06-16T05:25:20.600Z,38080
2017-06-16T05:26:20.610Z,36704
2017-06-16T05:27:20.614Z,37280
2017-06-16T05:28:20.625Z,40128
2017-06-16T05:29:20.631Z,40480
2017-06-16T05:30:20.643Z,37920
2017-06-16T05:31:20.647Z,24160
2017-06-16T05:32:20.356Z,37984
2017-06-16T05:33:20.370Z,40416
2017-06-16T05:34:20.682Z,41248
2017-06-16T05:35:20.688Z,41184
2017-06-16T05:36:20.695Z,39232
2017-06-16T05:37:20.404Z,38528
2017-06-16T05:38:20.715Z,41760
2017-06-16T05:39:20.724Z,41856
2017-06-16T05:40:20.736Z,40160
2017-06-16T05:41:20.748Z,32800
2017-06-16T05:42:20.756Z,42176
2017-06-16T05:43:20.771Z,44256
2017-06-16T05:44:20.780Z,41120
2017-06-16T05:45:20.792Z,42816
2017-06-16T05:46:20.800Z,39936
2017-06-16T05:47:20.511Z,46592
2017-06-16T05:48:20.827Z,43840
2017-06-16T05:49:20.535Z,20864
2017-06-16T05:50:20.559Z,40416
2017-06-16T05:51:20.862Z,51296
2017-06-16T05:52:20.874Z,51616
2017-06-16T05:53:20.582Z,49600
2017-06-16T05:54:20.907Z,47840
2017-06-16T05:55:20.911Z,50432
2017-06-16T05:56:20.925Z,14156
2017-06-16T05:57:20.937Z,20768
2017-06-16T05:58:20.955Z,53280
2017-06-16T05:59:20.665Z,51552
2017-06-16T06:00:20.980Z,51136
2017-06-16T06:01:20.989Z,39104
2017-06-16T06:02:21.002Z,49024
2017-06-16T06:03:21.015Z,48384
2017-06-16T06:04:21.032Z,52768
2017-06-16T06:05:21.061Z,53824
2017-06-16T06:06:21.109Z,53664
2017-06-16T06:07:21.087Z,48096
2017-06-16T06:08:21.097Z,50528
2017-06-16T06:09:21.114Z,55680
2017-06-16T06:10:21.115Z,57408
2017-06-16T06:11:20.822Z,57152
2017-06-16T06:12:21.143Z,58336
2017-06-16T06:13:21.173Z,60960
2017-06-16T06:14:21.186Z,58112
2017-06-16T06:15:21.185Z,25472
2017-06-16T06:16:21.205Z,24000
2017-06-16T06:17:21.228Z,44544
2017-06-16T06:18:21.235Z,26112
2017-06-16T06:19:21.260Z,24256
2017-06-16T06:20:21.260Z,24800
2017-06-16T06:21:21.275Z,22784
2017-06-16T06:22:21.297Z,24576
2017-06-16T06:23:21.300Z,20608
2017-06-16T06:24:21.318Z,17920
2017-06-16T06:25:21.350Z,16448
2017-06-16T06:26:21.345Z,13840
2017-06-16T06:27:21.357Z,13568
2017-06-16T06:28:21.372Z,15376
2017-06-16T06:29:21.092Z,18880
2017-06-16T06:30:21.396Z,21216
2017-06-16T06:31:21.406Z,20864
2017-06-16T06:32:21.418Z,21344
2017-06-16T06:33:21.426Z,23104
2017-06-16T06:34:21.444Z,18080
2017-06-16T06:35:21.448Z,28896
2017-06-16T06:36:21.459Z,16224
2017-06-16T06:37:21.467Z,17152
2017-06-16T06:38:21.477Z,49184
2017-06-16T06:39:21.487Z,65600
2017-06-16T06:40:21.501Z,66144
2017-06-16T06:41:21.511Z,66112
2017-06-16T06:42:21.546Z,34016
2017-06-16T06:43:21.246Z,70752
2017-06-16T06:44:21.256Z,65888
2017-06-16T06:45:21.551Z,38016
2017-06-16T06:46:21.562Z,53568
2017-06-16T06:47:21.281Z,68192
2017-06-16T06:48:21.580Z,57344
2017-06-16T06:49:21.301Z,31328
2017-06-16T06:50:21.604Z,36096
2017-06-16T06:51:21.313Z,57120
2017-06-16T06:52:21.630Z,25120
2017-06-16T06:53:21.640Z,16832
2017-06-16T06:54:21.659Z,14360
2017-06-16T06:55:21.357Z,13012
2017-06-16T06:56:21.675Z,11292
2017-06-16T06:57:21.685Z,10132
2017-06-16T06:58:21.696Z,9416
2017-06-16T06:59:21.707Z,9636
2017-06-16T07:00:21.717Z,9328
2017-06-16T07:01:21.731Z,8380
2017-06-16T07:02:21.739Z,6192
2017-06-16T07:03:21.746Z,4004
2017-06-16T07:04:21.761Z,2596
2017-06-16T07:05:21.763Z,2212
2017-06-16T07:06:21.774Z,2744
2017-06-16T07:07:21.497Z,3460
2017-06-16T07:08:21.797Z,3760
2017-06-16T07:09:21.799Z,2532
2017-06-16T07:10:21.810Z,2360
2017-06-16T07:11:21.817Z,2228
2017-06-16T07:12:21.821Z,1800
2017-06-16T07:13:21.527Z,1324
2017-06-16T07:14:21.834Z,2532
2017-06-16T07:15:21.842Z,5408
2017-06-16T07:16:21.852Z,7888
2017-06-16T07:17:21.549Z,10696
2017-06-16T07:18:21.858Z,13684
2017-06-16T07:19:21.863Z,14620
2017-06-16T07:20:21.869Z,15192
2017-06-16T07:21:21.870Z,15632
2017-06-16T07:22:21.610Z,15996
2017-06-16T07:23:21.884Z,16576
2017-06-16T07:24:21.881Z,16144
2017-06-16T07:25:21.883Z,15388
2017-06-16T07:26:21.886Z,14708
2017-06-16T07:27:21.583Z,13744
2017-06-16T07:28:21.886Z,13876
2017-06-16T07:29:21.887Z,13796
2017-06-16T07:30:21.592Z,13776
2017-06-16T07:31:21.895Z,13712
2017-06-16T07:32:21.895Z,13796
2017-06-16T07:33:21.893Z,13976
2017-06-16T07:34:21.896Z,14252
2017-06-16T07:35:21.895Z,14536
2017-06-16T07:36:21.940Z,14620
2017-06-16T07:37:21.894Z,14336
2017-06-16T07:38:21.896Z,13724
2017-06-16T07:39:21.897Z,12912
2017-06-16T07:40:21.897Z,12164
2017-06-16T07:41:21.894Z,11436
2017-06-16T07:42:21.896Z,11112
2017-06-16T07:43:21.894Z,10992
2017-06-16T07:44:21.894Z,11156
2017-06-16T07:45:21.601Z,11200
2017-06-16T07:46:21.890Z,11296
2017-06-16T07:47:21.591Z,11524
2017-06-16T07:48:21.890Z,12276
2017-06-16T07:49:21.892Z,12828
2017-06-16T07:50:21.893Z,12612
2017-06-16T07:51:21.893Z,13108
2017-06-16T07:52:21.892Z,14472
2017-06-16T07:53:21.892Z,15508
2017-06-16T07:54:21.887Z,16416
2017-06-16T07:55:21.884Z,17024
2017-06-16T07:56:21.892Z,17792
2017-06-16T07:57:21.886Z,19008
2017-06-16T07:58:21.278Z,19872
2017-06-16T07:59:21.885Z,20448
2017-06-16T08:00:21.883Z,20704
2017-06-16T08:01:21.890Z,20448
2017-06-16T08:02:21.579Z,20704
2017-06-16T08:03:21.887Z,23360
2017-06-16T08:04:21.888Z,27008
2017-06-16T08:05:21.878Z,28736
2017-06-16T08:06:21.885Z,32416
2017-06-16T08:07:21.884Z,33088
2017-06-16T08:08:21.882Z,34624
2017-06-16T08:09:21.879Z,66880
2017-06-16T08:10:21.881Z,94912
2017-06-16T08:11:21.884Z,33824
2017-06-16T08:12:21.884Z,27616
2017-06-16T08:13:21.886Z,86880
2017-06-16T08:14:21.888Z,83296
2017-06-16T08:15:21.890Z,74784
2017-06-16T08:16:21.590Z,82112
2017-06-16T08:17:21.597Z,102784
2017-06-16T08:18:21.902Z,29184
2017-06-16T08:19:21.604Z,110240
2017-06-16T08:20:21.914Z,109568
2017-06-16T08:21:21.617Z,111808
2017-06-16T08:22:21.931Z,32384
2017-06-16T08:23:21.936Z,36480
2017-06-16T08:24:21.642Z,33376
2017-06-16T08:25:21.954Z,33088
2017-06-16T08:26:21.961Z,21408
2017-06-16T08:27:21.669Z,20832
2017-06-16T08:28:21.981Z,19552
2017-06-16T08:29:21.685Z,14588
2017-06-16T08:30:21.693Z,12872
2017-06-16T08:31:21.701Z,16320
2017-06-16T08:32:21.710Z,22880
2017-06-16T08:33:21.721Z,31392
2017-06-16T08:34:21.728Z,26240
2017-06-16T08:35:22.038Z,23744
2017-06-16T08:36:21.742Z,23776
2017-06-16T08:37:21.748Z,26528
2017-06-16T08:38:22.087Z,49344
2017-06-16T08:39:22.064Z,64096
2017-06-16T08:40:21.767Z,86880
2017-06-16T08:41:21.782Z,88992
2017-06-16T08:42:21.781Z,87040
2017-06-16T08:43:21.793Z,88448
2017-06-16T08:44:21.804Z,86144
2017-06-16T08:45:21.806Z,82784
2017-06-16T08:46:21.812Z,34176
2017-06-16T08:47:21.825Z,55232
2017-06-16T08:48:22.135Z,81920
2017-06-16T08:49:22.145Z,75776
2017-06-16T08:50:21.848Z,85440
2017-06-16T08:51:22.163Z,79264
2017-06-16T08:52:21.866Z,44864
2017-06-16T08:53:21.877Z,41664
2017-06-16T08:54:21.888Z,35936
2017-06-16T08:55:21.895Z,28960
2017-06-16T08:56:22.208Z,24064
2017-06-16T08:57:21.910Z,21632
2017-06-16T08:58:21.621Z,38624
2017-06-16T08:59:21.930Z,43584
2017-06-16T09:00:22.245Z,37024
2017-06-16T09:01:22.251Z,24192
2017-06-16T09:02:22.261Z,19520
2017-06-16T09:03:21.964Z,23520
2017-06-16T09:04:22.279Z,16656
2017-06-16T09:05:21.980Z,18048
2017-06-16T09:06:21.990Z,21152
2017-06-16T09:07:22.299Z,15804
2017-06-16T09:08:22.306Z,13948
2017-06-16T09:09:22.312Z,12720
2017-06-16T09:10:22.017Z,12944
2017-06-16T09:11:22.025Z,14748
2017-06-16T09:12:22.032Z,13384
2017-06-16T09:13:22.038Z,12224
2017-06-16T09:14:22.344Z,11764
2017-06-16T09:15:22.052Z,13268
2017-06-16T09:16:22.356Z,11216
2017-06-16T09:17:22.366Z,12792
2017-06-16T09:18:22.063Z,18048
2017-06-16T09:19:22.371Z,16720
2017-06-16T09:20:22.375Z,16084
2017-06-16T09:21:22.402Z,13580
2017-06-16T09:22:22.080Z,14636
2017-06-16T09:23:22.392Z,21792
2017-06-16T09:24:21.790Z,24224
2017-06-16T09:25:22.402Z,22976
2017-06-16T09:26:22.402Z,19424
2017-06-16T09:27:22.403Z,21280
2017-06-16T09:28:22.105Z,27040
2017-06-16T09:29:22.408Z,27360
2017-06-16T09:30:22.449Z,21920
2017-06-16T09:31:22.415Z,21536
2017-06-16T09:32:22.118Z,24544
2017-06-16T09:33:22.424Z,25440
2017-06-16T09:34:22.427Z,25984
2017-06-16T09:35:22.435Z,25376
2017-06-16T09:36:22.442Z,29248
2017-06-16T09:37:22.437Z,30272
2017-06-16T09:38:22.142Z,30784
2017-06-16T09:39:22.142Z,26272
2017-06-16T09:40:22.447Z,19552
2017-06-16T09:41:22.452Z,15776
2017-06-16T09:42:22.153Z,12868
2017-06-16T09:43:22.155Z,13872
2017-06-16T09:44:22.464Z,13460
2017-06-16T09:45:22.467Z,12028
2017-06-16T09:46:22.470Z,11952
2017-06-16T09:47:22.473Z,11172
2017-06-16T09:48:22.479Z,11292
2017-06-16T09:49:22.482Z,12452
2017-06-16T09:50:21.887Z,12500
2017-06-16T09:51:22.492Z,12300
2017-06-16T09:52:22.491Z,14416
2017-06-16T09:53:22.498Z,16884
2017-06-16T09:54:22.197Z,20224
2017-06-16T09:55:22.504Z,20096
2017-06-16T09:56:22.505Z,19008
2017-06-16T09:57:22.516Z,19648
2017-06-16T09:58:22.514Z,20608
2017-06-16T09:59:22.521Z,23040
2017-06-16T10:00:22.216Z,25472
2017-06-16T10:01:22.225Z,25216
2017-06-16T10:02:22.224Z,23936
2017-06-16T10:03:22.232Z,25536
2017-06-16T10:04:22.230Z,25536
2017-06-16T10:05:22.537Z,27008
2017-06-16T10:06:22.239Z,32032
2017-06-16T10:07:22.548Z,29248
2017-06-16T10:08:22.547Z,29216
2017-06-16T10:09:22.554Z,29952
2017-06-16T10:10:22.556Z,31008
2017-06-16T10:11:22.559Z,33472
2017-06-16T10:12:22.565Z,34848
2017-06-16T10:13:22.572Z,29472
2017-06-16T10:14:22.582Z,23520
2017-06-16T10:15:22.580Z,20832
2017-06-16T10:16:22.583Z,21088
2017-06-16T10:17:22.587Z,19328
2017-06-16T10:18:22.599Z,17696
2017-06-16T10:19:22.599Z,15988
2017-06-16T10:20:22.609Z,13684
2017-06-16T10:21:22.609Z,16816
2017-06-16T10:22:22.613Z,20544
2017-06-16T10:23:22.619Z,22528
2017-06-16T10:24:22.322Z,23808
2017-06-16T10:25:22.626Z,22944
2017-06-16T10:26:22.638Z,21408
2017-06-16T10:27:22.636Z,19520
2017-06-16T10:28:22.347Z,19040
2017-06-16T10:29:22.649Z,19712
2017-06-16T10:30:22.696Z,18752
2017-06-16T10:31:22.657Z,19264
2017-06-16T10:32:22.664Z,19232
2017-06-16T10:33:22.664Z,19808
2017-06-16T10:34:22.671Z,21824
2017-06-16T10:35:22.676Z,25856
2017-06-16T10:36:22.677Z,27840
2017-06-16T10:37:22.683Z,23616
2017-06-16T10:38:22.382Z,20832
2017-06-16T10:39:22.690Z,21504
2017-06-16T10:40:22.699Z,20096
2017-06-16T10:41:22.700Z,19200
2017-06-16T10:42:22.709Z,19584
2017-06-16T10:43:22.708Z,21664
2017-06-16T10:44:22.714Z,23840
2017-06-16T10:45:22.419Z,24480
2017-06-16T10:46:22.724Z,24928
2017-06-16T10:47:22.725Z,24960
2017-06-16T10:48:22.730Z,23424
2017-06-16T10:49:22.432Z,20096
2017-06-16T10:50:22.745Z,17440
2017-06-16T10:51:22.743Z,17856
2017-06-16T10:52:22.749Z,18592
2017-06-16T10:53:22.752Z,19264
2017-06-16T10:54:22.758Z,17856
2017-06-16T10:55:22.763Z,16768
2017-06-16T10:56:22.769Z,16544
2017-06-16T10:57:22.775Z,17728
2017-06-16T10:58:22.778Z,18112
2017-06-16T10:59:22.777Z,18112
2017-06-16T11:00:22.782Z,18368
2017-06-16T11:01:22.798Z,16316
2017-06-16T11:02:22.491Z,17632
2017-06-16T11:03:22.798Z,20352
2017-06-16T11:04:22.798Z,22720
2017-06-16T11:05:22.806Z,22368
2017-06-16T11:06:22.808Z,22048
2017-06-16T11:07:22.814Z,21152
2017-06-16T11:08:22.816Z,19776
2017-06-16T11:09:22.517Z,18464
2017-06-16T11:10:22.828Z,16720
2017-06-16T11:11:22.832Z,14916
2017-06-16T11:12:22.835Z,14200
2017-06-16T11:13:22.840Z,14068
2017-06-16T11:14:22.842Z,12748
2017-06-16T11:15:22.847Z,11304
2017-06-16T11:16:22.852Z,10608
2017-06-16T11:17:23.208Z,10820
2017-06-16T11:18:22.865Z,11116
2017-06-16T11:19:22.866Z,12880
2017-06-16T11:20:22.565Z,14680
2017-06-16T11:21:22.575Z,14940
2017-06-16T11:22:22.574Z,13164
2017-06-16T11:23:22.881Z,11756
2017-06-16T11:24:22.584Z,10412
2017-06-16T11:25:22.892Z,11992
2017-06-16T11:26:22.907Z,15632
2017-06-16T11:27:22.897Z,17504
2017-06-16T11:28:22.602Z,19840
2017-06-16T11:29:22.904Z,21984
2017-06-16T11:30:22.908Z,19360
2017-06-16T11:31:22.917Z,15616
2017-06-16T11:32:22.916Z,14944
2017-06-16T11:33:22.921Z,18176
2017-06-16T11:34:22.923Z,18912
2017-06-16T11:35:22.931Z,20640
2017-06-16T11:36:22.632Z,20576
2017-06-16T11:37:22.937Z,16704
2017-06-16T11:38:22.944Z,14260
2017-06-16T11:39:22.947Z,12304
2017-06-16T11:40:22.346Z,11700
2017-06-16T11:41:22.953Z,11776
2017-06-16T11:42:22.963Z,12352
2017-06-16T11:43:22.962Z,14180
2017-06-16T11:44:22.964Z,16320
2017-06-16T11:45:22.970Z,17120
2017-06-16T11:46:22.975Z,16608
2017-06-16T11:47:22.879Z,16928
2017-06-16T11:48:22.981Z,19264
2017-06-16T11:49:22.983Z,20960
2017-06-16T11:50:22.688Z,21824
2017-06-16T11:51:22.996Z,22208
2017-06-16T11:52:22.998Z,21792
2017-06-16T11:53:23.002Z,21248
2017-06-16T11:54:23.014Z,20832
2017-06-16T11:55:23.011Z,20064
2017-06-16T11:56:22.711Z,18912
2017-06-16T11:57:23.018Z,18112
2017-06-16T11:58:22.717Z,17504
2017-06-16T11:59:23.026Z,17408
2017-06-16T12:00:22.727Z,17312
2017-06-16T12:01:22.734Z,17088
2017-06-16T12:02:22.737Z,16712
2017-06-16T12:03:23.040Z,15160
2017-06-16T12:04:23.051Z,12688
2017-06-16T12:05:23.047Z,10560
2017-06-16T12:06:23.051Z,9332
2017-06-16T12:07:23.057Z,9072
2017-06-16T12:08:23.059Z,9832
2017-06-16T12:09:23.067Z,9916
2017-06-16T12:10:23.068Z,9428
2017-06-16T12:11:23.077Z,8956
2017-06-16T12:12:23.077Z,9592
2017-06-16T12:13:23.084Z,10500
2017-06-16T12:14:23.087Z,11924
2017-06-16T12:15:22.480Z,13276
2017-06-16T12:16:22.790Z,11724
2017-06-16T12:17:22.797Z,10144
2017-06-16T12:18:23.095Z,8100
2017-06-16T12:19:23.099Z,6636
2017-06-16T12:20:23.102Z,5376
2017-06-16T12:21:22.802Z,4980
2017-06-16T12:22:22.807Z,4872
2017-06-16T12:23:22.506Z,5436
2017-06-16T12:24:22.810Z,5832
2017-06-16T12:25:23.114Z,6676
2017-06-16T12:26:23.122Z,7808
2017-06-16T12:27:23.120Z,8932
2017-06-16T12:28:23.127Z,10176
2017-06-16T12:29:22.820Z,11468
2017-06-16T12:30:23.133Z,13496
2017-06-16T12:31:23.129Z,16128
2017-06-16T12:32:23.126Z,18528
2017-06-16T12:33:23.133Z,20128
2017-06-16T12:34:23.131Z,20768
2017-06-16T12:35:23.137Z,20576
2017-06-16T12:36:23.134Z,20416
2017-06-16T12:37:23.134Z,20704
2017-06-16T12:38:23.142Z,20992
2017-06-16T12:39:23.135Z,21792
2017-06-16T12:40:23.137Z,22496
2017-06-16T12:41:22.835Z,22720
2017-06-16T12:42:23.138Z,22304
2017-06-16T12:43:23.137Z,21568
2017-06-16T12:44:22.837Z,20384
2017-06-16T12:45:23.151Z,18560
2017-06-16T12:48:23.145Z,14076
2017-06-16T12:49:22.843Z,12140
2017-06-16T12:50:23.147Z,10556
2017-06-16T12:51:23.146Z,9404
2017-06-16T12:52:23.150Z,8816
2017-06-16T12:53:23.150Z,8672
2017-06-16T12:54:22.850Z,8896
2017-06-16T12:55:23.149Z,9560
2017-06-16T12:56:23.151Z,10884
2017-06-16T12:57:23.146Z,12220
2017-06-16T12:58:23.162Z,13480
2017-06-16T12:59:23.153Z,13796
2017-06-16T13:00:23.150Z,14368
2017-06-16T13:01:23.148Z,14004
2017-06-16T13:02:23.150Z,14820
2017-06-16T13:03:22.847Z,14304
2017-06-16T13:04:23.156Z,13496
2017-06-16T13:05:23.151Z,12660
2017-06-16T13:06:23.150Z,11732
2017-06-16T13:07:23.152Z,10904
2017-06-16T13:08:23.150Z,10296
2017-06-16T13:09:23.154Z,9832
2017-06-16T13:10:23.156Z,9512
2017-06-16T13:11:23.157Z,9036
2017-06-16T13:12:23.155Z,8700
2017-06-16T13:13:23.152Z,8448
2017-06-16T13:14:22.850Z,8372
2017-06-16T13:15:22.850Z,8516
2017-06-16T13:16:23.153Z,9232
2017-06-16T13:17:23.155Z,9736
2017-06-16T13:18:23.153Z,9976
2017-06-16T13:19:23.150Z,9728
2017-06-16T13:20:23.151Z,9140
2017-06-16T13:21:23.151Z,8552
2017-06-16T13:22:23.150Z,8364